createdAt,value
2019-02-06T00:00:46.804Z,85.70
2019-02-06T00:03:16.682Z,85.90
2019-02-06T00:05:44.993Z,86.20
2019-02-06T00:08:13.253Z,86.40
2019-02-06T00:10:41.518Z,86.70
2019-02-06T00:13:09.781Z,87.00
2019-02-06T00:15:38.042Z,87.20
2019-02-06T00:18:06.796Z,87.80
2019-02-06T00:20:35.116Z,88.30
2019-02-06T00:23:03.459Z,88.70
2019-02-06T00:25:31.732Z,88.70
2019-02-06T00:27:59.974Z,88.30
2019-02-06T00:30:28.211Z,88.10
2019-02-06T00:32:56.487Z,88.40
2019-02-06T00:35:26.130Z,88.70
2019-02-06T00:37:54.537Z,89.10
2019-02-06T00:40:22.821Z,89.50
2019-02-06T00:42:51.083Z,89.10
2019-02-06T00:45:19.395Z,89.60
2019-02-06T00:47:47.665Z,89.70
2019-02-06T00:50:16.389Z,90.00
2019-02-06T00:52:44.643Z,90.00
2019-02-06T00:55:14.232Z,90.20
2019-02-06T00:57:42.488Z,90.20
2019-02-06T01:00:22.269Z,90.20
2019-02-06T01:02:51.679Z,90.10
2019-02-06T01:05:20.293Z,90.10
2019-02-06T01:07:48.550Z,90.00
2019-02-06T01:10:19.033Z,89.70
2019-02-06T01:12:47.318Z,89.90
2019-02-06T01:15:15.577Z,90.30
2019-02-06T01:17:43.863Z,90.20
2019-02-06T01:20:15.204Z,90.20
2019-02-06T01:22:43.488Z,90.20
2019-02-06T01:25:13.883Z,90.10
2019-02-06T01:27:42.150Z,90.20
2019-02-06T01:30:22.093Z,90.30
2019-02-06T01:32:50.378Z,90.10
2019-02-06T01:35:19.009Z,90.00
2019-02-06T01:37:47.251Z,89.40
2019-02-06T01:40:20.045Z,89.10
2019-02-06T01:42:48.314Z,89.10
2019-02-06T01:45:18.628Z,88.60
2019-02-06T01:47:46.882Z,88.70
2019-02-06T01:50:17.134Z,88.70
2019-02-06T01:52:45.419Z,89.10
2019-02-06T01:55:15.001Z,89.00
2019-02-06T01:57:43.263Z,88.80
2019-02-06T02:00:14.777Z,89.50
2019-02-06T02:02:43.014Z,88.80
2019-02-06T02:05:11.679Z,89.10
2019-02-06T02:07:39.934Z,89.50
2019-02-06T02:10:10.313Z,89.90
2019-02-06T02:12:38.659Z,89.80
2019-02-06T02:15:10.101Z,90.00
2019-02-06T02:17:38.336Z,90.00
2019-02-06T02:20:12.754Z,90.00
2019-02-06T02:22:40.994Z,90.00
2019-02-06T02:25:09.267Z,90.00
2019-02-06T02:27:37.516Z,89.70
2019-02-06T02:30:09.377Z,89.70
2019-02-06T02:32:37.731Z,89.70
2019-02-06T02:35:07.498Z,89.40
2019-02-06T02:37:35.836Z,89.50
2019-02-06T02:40:06.929Z,89.60
2019-02-06T02:42:35.190Z,89.00
2019-02-06T02:45:04.439Z,88.90
2019-02-06T02:47:32.717Z,88.90
2019-02-06T02:50:01.426Z,88.80
2019-02-06T02:52:29.669Z,88.30
2019-02-06T02:54:57.948Z,87.70
2019-02-06T02:57:26.187Z,87.80
2019-02-06T02:59:54.447Z,88.30
2019-02-06T03:02:30.343Z,88.70
2019-02-06T03:04:59.041Z,89.00
2019-02-06T03:07:27.302Z,89.10
2019-02-06T03:09:55.560Z,88.60
2019-02-06T03:12:23.813Z,88.40
2019-02-06T03:14:52.061Z,87.90
2019-02-06T03:17:20.321Z,88.00
2019-02-06T03:19:48.575Z,88.70
2019-02-06T03:22:17.416Z,88.90
2019-02-06T03:24:45.672Z,89.10
2019-02-06T03:27:14.001Z,89.80
2019-02-06T03:29:42.260Z,90.00
2019-02-06T03:32:10.528Z,90.10
2019-02-06T03:34:38.769Z,90.10
2019-02-06T03:37:07.010Z,90.00
2019-02-06T03:39:35.280Z,89.70
2019-02-06T03:42:03.518Z,89.20
2019-02-06T03:44:31.789Z,89.10
2019-02-06T03:47:00.025Z,88.80
2019-02-06T03:49:28.280Z,88.20
2019-02-06T03:51:56.521Z,88.10
2019-02-06T03:54:24.795Z,87.30
2019-02-06T03:56:53.038Z,86.50
2019-02-06T03:59:21.309Z,86.30
2019-02-06T04:01:49.546Z,85.70
2019-02-06T04:04:17.812Z,85.20
2019-02-06T04:06:56.412Z,84.70
2019-02-06T04:09:16.056Z,84.40
2019-02-06T04:11:44.781Z,85.30
2019-02-06T04:14:13.019Z,85.70
2019-02-06T04:16:41.283Z,85.90
2019-02-06T04:19:09.532Z,86.20
2019-02-06T04:21:37.820Z,85.90
2019-02-06T04:24:06.069Z,86.00
2019-02-06T04:26:34.311Z,86.00
2019-02-06T04:29:02.842Z,85.80
2019-02-06T04:31:31.090Z,85.80
2019-02-06T04:33:59.351Z,85.20
2019-02-06T04:36:27.598Z,85.30
2019-02-06T04:38:55.850Z,85.30
2019-02-06T04:41:24.090Z,85.30
2019-02-06T04:43:52.330Z,85.30
2019-02-06T04:46:20.592Z,84.80
2019-02-06T04:48:48.827Z,84.60
2019-02-06T04:51:17.091Z,84.80
2019-02-06T04:53:45.373Z,84.80
2019-02-06T04:56:13.605Z,84.50
2019-02-06T04:58:41.865Z,84.90
2019-02-06T05:01:10.107Z,85.10
2019-02-06T05:03:38.384Z,84.90
2019-02-06T05:06:06.637Z,84.90
2019-02-06T05:08:34.943Z,85.20
2019-02-06T05:11:03.205Z,85.30
2019-02-06T05:13:31.453Z,85.50
2019-02-06T05:15:59.730Z,85.50
2019-02-06T05:18:28.055Z,85.70
2019-02-06T05:20:56.305Z,86.30
2019-02-06T05:23:24.550Z,86.60
2019-02-06T05:25:52.802Z,87.20
2019-02-06T05:28:21.047Z,86.70
2019-02-06T05:30:49.335Z,87.60
2019-02-06T05:33:17.635Z,87.60
2019-02-06T05:35:46.388Z,87.70
2019-02-06T05:38:14.644Z,87.60
2019-02-06T05:40:42.991Z,87.90
2019-02-06T05:43:11.250Z,87.70
2019-02-06T05:45:39.501Z,87.30
2019-02-06T05:48:07.757Z,86.80
2019-02-06T05:50:35.998Z,87.60
2019-02-06T05:53:04.649Z,87.00
2019-02-06T05:55:32.880Z,87.10
2019-02-06T05:58:01.146Z,87.30
2019-02-06T06:00:31.021Z,87.30
2019-02-06T06:02:59.301Z,87.30
2019-02-06T06:05:27.545Z,86.80
2019-02-06T06:07:55.793Z,86.80
2019-02-06T06:10:24.421Z,86.70
2019-02-06T06:12:52.674Z,86.70
2019-02-06T06:15:21.203Z,86.70
2019-02-06T06:17:49.447Z,86.60
2019-02-06T06:20:19.131Z,86.40
2019-02-06T06:22:47.472Z,86.10
2019-02-06T06:25:21.078Z,86.30
2019-02-06T06:27:49.640Z,86.40
2019-02-06T06:30:21.075Z,86.40
2019-02-06T06:32:49.335Z,86.50
2019-02-06T06:35:17.610Z,86.70
2019-02-06T06:37:57.602Z,87.20
2019-02-06T06:40:21.220Z,87.30
2019-02-06T06:42:49.490Z,87.60
2019-02-06T06:45:24.891Z,87.50
2019-02-06T06:47:53.215Z,87.20
2019-02-06T06:50:23.498Z,86.90
2019-02-06T06:52:52.032Z,86.00
2019-02-06T06:55:20.348Z,85.60
2019-02-06T06:57:48.590Z,85.90
2019-02-06T07:00:19.638Z,85.90
2019-02-06T07:02:47.887Z,86.20
2019-02-06T07:05:16.523Z,86.40
2019-02-06T07:07:44.855Z,86.50
2019-02-06T07:10:15.217Z,86.40
2019-02-06T07:12:43.674Z,86.50
2019-02-06T07:15:20.572Z,86.30
2019-02-06T07:17:48.840Z,85.90
2019-02-06T07:20:18.619Z,85.70
2019-02-06T07:22:46.862Z,85.60
2019-02-06T07:25:19.272Z,85.10
2019-02-06T07:27:47.533Z,85.20
2019-02-06T07:30:24.567Z,84.80
2019-02-06T07:32:52.869Z,84.80
2019-02-06T07:35:21.196Z,84.60
2019-02-06T07:37:49.449Z,84.40
2019-02-06T07:40:18.079Z,84.20
2019-02-06T07:42:46.336Z,84.50
2019-02-06T07:45:16.675Z,83.70
2019-02-06T07:47:44.944Z,83.00
2019-02-06T07:50:16.681Z,82.60
2019-02-06T07:52:44.945Z,82.60
2019-02-06T07:55:14.050Z,82.50
2019-02-06T07:57:42.317Z,83.20
2019-02-06T08:00:10.626Z,82.70
2019-02-06T08:02:38.902Z,82.30
2019-02-06T08:05:10.435Z,80.60
2019-02-06T08:07:38.674Z,80.60
2019-02-06T08:10:10.203Z,80.20
2019-02-06T08:12:38.452Z,80.50
2019-02-06T08:15:09.998Z,80.30
2019-02-06T08:17:38.243Z,80.40
2019-02-06T08:20:10.017Z,80.80
2019-02-06T08:22:38.279Z,80.50
2019-02-06T08:25:10.075Z,79.30
2019-02-06T08:27:38.324Z,79.50
2019-02-06T08:30:12.599Z,79.90
2019-02-06T08:32:40.851Z,79.20
2019-02-06T08:35:10.652Z,78.90
2019-02-06T08:37:38.922Z,78.50
2019-02-06T08:40:10.086Z,78.50
2019-02-06T08:42:38.348Z,78.70
2019-02-06T08:45:10.112Z,78.00
2019-02-06T08:47:38.380Z,78.00
2019-02-06T08:50:09.894Z,77.70
2019-02-06T08:52:38.171Z,77.50
2019-02-06T08:55:10.034Z,77.60
2019-02-06T08:57:38.291Z,76.90
2019-02-06T09:00:09.792Z,75.90
2019-02-06T09:02:38.091Z,76.50
2019-02-06T09:05:08.396Z,76.10
2019-02-06T09:07:36.658Z,75.20
2019-02-06T09:10:08.556Z,75.30
2019-02-06T09:12:36.811Z,74.70
2019-02-06T09:15:06.589Z,74.90
2019-02-06T09:17:34.829Z,74.10
2019-02-06T09:20:03.198Z,73.30
2019-02-06T09:22:31.497Z,73.10
2019-02-06T09:25:00.323Z,72.20
2019-02-06T09:27:28.650Z,72.60
2019-02-06T09:29:56.912Z,72.10
2019-02-06T09:32:25.232Z,71.30
2019-02-06T09:34:53.500Z,71.00
2019-02-06T09:37:21.739Z,70.80
2019-02-06T09:39:50.058Z,69.90
2019-02-06T09:42:18.600Z,68.40
2019-02-06T09:44:46.830Z,68.00
2019-02-06T09:47:15.098Z,66.80
2019-02-06T09:49:43.416Z,66.70
2019-02-06T09:52:11.762Z,65.70
2019-02-06T09:54:40.020Z,66.20
2019-02-06T09:57:08.243Z,64.70
2019-02-06T09:59:36.873Z,64.00
2019-02-06T10:02:05.123Z,64.70
2019-02-06T10:04:33.388Z,64.10
2019-02-06T10:07:01.627Z,64.00
2019-02-06T10:09:29.867Z,62.70
2019-02-06T10:11:58.128Z,63.50
2019-02-06T10:14:26.391Z,61.40
2019-02-06T10:16:54.913Z,61.80
2019-02-06T10:19:23.181Z,61.20
2019-02-06T10:21:53.710Z,59.40
2019-02-06T10:24:21.400Z,58.90
2019-02-06T10:26:49.662Z,58.50
2019-02-06T10:29:17.897Z,58.20
2019-02-06T10:31:46.208Z,57.80
2019-02-06T10:34:14.462Z,57.40
2019-02-06T10:36:42.704Z,56.40
2019-02-06T10:39:10.974Z,55.80
2019-02-06T10:41:39.210Z,55.90
2019-02-06T10:44:07.493Z,55.70
2019-02-06T10:46:35.769Z,55.90
2019-02-06T10:49:04.368Z,56.30
2019-02-06T10:51:32.618Z,56.70
2019-02-06T10:54:00.869Z,56.10
2019-02-06T10:56:29.118Z,56.10
2019-02-06T10:58:57.374Z,55.60
2019-02-06T11:01:25.696Z,55.10
2019-02-06T11:03:53.944Z,55.00
2019-02-06T11:06:22.557Z,55.60
2019-02-06T11:08:50.813Z,55.80
2019-02-06T11:11:19.073Z,55.50
2019-02-06T11:13:49.738Z,54.70
2019-02-06T11:16:17.293Z,53.50
2019-02-06T11:18:45.554Z,53.00
2019-02-06T11:21:13.829Z,52.80
2019-02-06T11:23:42.158Z,53.20
2019-02-06T11:26:10.443Z,52.20
2019-02-06T11:28:38.686Z,50.10
2019-02-06T11:31:07.025Z,50.80
2019-02-06T11:33:35.284Z,49.40
2019-02-06T11:36:03.546Z,49.20
2019-02-06T11:38:32.173Z,47.60
2019-02-06T11:41:00.405Z,47.30
2019-02-06T11:43:28.659Z,48.00
2019-02-06T11:45:56.918Z,47.30
2019-02-06T11:48:25.160Z,47.30
2019-02-06T11:50:53.683Z,46.40
2019-02-06T11:53:22.517Z,45.60
2019-02-06T11:55:51.143Z,45.70
2019-02-06T11:58:19.385Z,45.70
2019-02-06T12:01:04.541Z,46.20
2019-02-06T12:03:32.804Z,45.60
2019-02-06T12:06:01.038Z,45.10
2019-02-06T12:08:31.189Z,45.20
2019-02-06T12:10:59.594Z,45.80
2019-02-06T12:13:27.841Z,45.50
2019-02-06T12:15:56.092Z,45.90
2019-02-06T12:18:24.364Z,45.20
2019-02-06T12:20:52.675Z,44.60
2019-02-06T12:23:31.642Z,45.10
2019-02-06T12:25:50.885Z,45.40
2019-02-06T12:28:19.166Z,43.80
2019-02-06T12:30:47.466Z,42.90
2019-02-06T12:33:15.725Z,43.60
2019-02-06T12:35:43.969Z,42.90
2019-02-06T12:38:12.213Z,43.80
2019-02-06T12:40:40.492Z,43.50
2019-02-06T12:43:10.510Z,43.60
2019-02-06T12:45:39.138Z,44.30
2019-02-06T12:48:07.414Z,43.50
2019-02-06T12:50:35.729Z,41.90
2019-02-06T12:53:04.252Z,41.70
2019-02-06T12:55:38.473Z,40.50
2019-02-06T12:58:07.868Z,41.20
2019-02-06T13:00:41.669Z,40.30
2019-02-06T13:03:09.928Z,39.50
2019-02-06T13:05:38.237Z,39.80
2019-02-06T13:08:06.992Z,40.00
2019-02-06T13:10:35.259Z,38.30
2019-02-06T13:13:03.521Z,39.10
2019-02-06T13:15:32.185Z,37.90
2019-02-06T13:18:00.436Z,37.50
2019-02-06T13:20:30.844Z,37.90
2019-02-06T13:22:59.107Z,37.50
2019-02-06T13:25:27.376Z,38.20
2019-02-06T13:27:55.617Z,36.10
2019-02-06T13:30:27.111Z,36.70
2019-02-06T13:32:55.442Z,35.10
2019-02-06T13:35:23.686Z,34.70
2019-02-06T13:37:51.946Z,34.40
2019-02-06T13:40:25.948Z,34.60
2019-02-06T13:42:54.237Z,36.10
2019-02-06T13:45:27.785Z,38.00
2019-02-06T13:47:56.044Z,37.30
2019-02-06T13:50:24.729Z,36.70
2019-02-06T13:52:53.004Z,37.80
2019-02-06T13:55:21.234Z,37.50
2019-02-06T13:57:49.502Z,38.20
2019-02-06T14:00:35.305Z,38.50
2019-02-06T14:03:03.598Z,37.80
2019-02-06T14:05:32.316Z,36.40
2019-02-06T14:08:21.611Z,35.60
2019-02-06T14:10:58.507Z,35.80
2019-02-06T14:13:19.841Z,34.30
2019-02-06T14:15:48.463Z,34.30
2019-02-06T14:18:16.798Z,34.40
2019-02-06T14:20:46.487Z,35.80
2019-02-06T14:23:17.768Z,30.90
2019-02-06T14:26:10.593Z,32.50
2019-02-06T14:28:47.972Z,31.10
2019-02-06T14:31:39.039Z,33.50
2019-02-06T14:34:10.549Z,33.10
2019-02-06T14:36:50.790Z,32.50
2019-02-06T14:39:22.317Z,31.60
2019-02-06T14:41:53.814Z,30.70
2019-02-06T14:44:37.189Z,31.30
2019-02-06T14:47:23.071Z,31.40
2019-02-06T14:50:00.213Z,30.90
2019-02-06T14:52:40.781Z,33.70
2019-02-06T14:55:18.269Z,35.60
2019-02-06T14:57:53.222Z,37.90
2019-02-06T15:00:36.423Z,39.30
2019-02-06T15:03:27.358Z,40.00
2019-02-06T15:06:31.094Z,41.40
2019-02-06T15:09:14.957Z,43.10
2019-02-06T15:11:49.405Z,43.20
2019-02-06T15:14:32.699Z,43.50
2019-02-06T15:17:23.738Z,44.10
2019-02-06T15:20:16.231Z,44.50
2019-02-06T15:22:59.655Z,45.10
2019-02-06T15:25:47.843Z,46.00
2019-02-06T15:28:38.438Z,46.30
2019-02-06T15:31:12.624Z,46.70
2019-02-06T15:34:19.265Z,47.80
2019-02-06T15:37:07.418Z,48.30
2019-02-06T15:39:53.976Z,49.10
2019-02-06T15:42:31.159Z,49.60
2019-02-06T15:45:18.984Z,49.10
2019-02-06T15:47:59.710Z,49.20
2019-02-06T15:50:43.330Z,49.80
2019-02-06T15:53:23.081Z,50.20
2019-02-06T15:56:03.039Z,49.80
2019-02-06T15:58:40.525Z,50.50
2019-02-06T16:01:43.261Z,51.70
2019-02-06T16:04:28.868Z,52.10
2019-02-06T16:07:03.068Z,53.80
2019-02-06T16:09:40.436Z,54.60
2019-02-06T16:12:33.096Z,54.70
2019-02-06T16:15:10.373Z,55.00
2019-02-06T16:18:03.057Z,54.90
2019-02-06T16:20:40.197Z,56.90
2019-02-06T16:23:29.716Z,57.20
2019-02-06T16:26:06.959Z,59.20
2019-02-06T16:28:53.860Z,60.10
2019-02-06T16:31:43.548Z,60.80
2019-02-06T16:34:17.968Z,62.50
2019-02-06T16:36:55.509Z,63.70
2019-02-06T16:39:27.113Z,64.70
2019-02-06T16:42:16.597Z,64.60
2019-02-06T16:44:51.117Z,66.00
2019-02-06T16:47:25.477Z,66.70
2019-02-06T16:50:16.581Z,67.00
2019-02-06T16:53:03.167Z,67.60
2019-02-06T16:55:55.723Z,68.50
2019-02-06T16:58:54.411Z,68.80
2019-02-06T17:01:38.132Z,69.30
2019-02-06T17:04:30.321Z,69.50
2019-02-06T17:07:16.553Z,69.50
2019-02-06T17:10:13.722Z,67.10
2019-02-06T17:12:55.053Z,65.50
2019-02-06T17:15:46.221Z,64.50
2019-02-06T17:18:37.186Z,65.00
2019-02-06T17:21:09.076Z,65.10
2019-02-06T17:23:59.788Z,64.70
2019-02-06T17:26:36.783Z,63.30
2019-02-06T17:29:25.553Z,62.40
2019-02-06T17:32:11.346Z,62.00
2019-02-06T17:34:45.538Z,62.30
2019-02-06T17:37:17.076Z,63.30
2019-02-06T17:40:09.925Z,61.90
2019-02-06T17:42:53.299Z,61.40
2019-02-06T17:45:24.812Z,61.00
2019-02-06T17:48:15.855Z,60.30
2019-02-06T17:50:47.364Z,61.80
2019-02-06T17:53:27.405Z,60.90
2019-02-06T17:55:55.637Z,61.10
2019-02-06T17:58:23.913Z,61.20
2019-02-06T18:00:55.375Z,61.30
2019-02-06T18:03:23.634Z,61.10
2019-02-06T18:05:51.968Z,61.00
2019-02-06T18:08:20.202Z,61.20
2019-02-06T18:10:48.445Z,60.80
2019-02-06T18:13:17.175Z,60.90
2019-02-06T18:15:45.447Z,61.00
2019-02-06T18:18:13.686Z,61.50
2019-02-06T18:20:42.332Z,61.50
2019-02-06T18:23:10.594Z,62.00
2019-02-06T18:25:38.842Z,62.20
2019-02-06T18:28:07.085Z,62.10
2019-02-06T18:30:35.315Z,61.40
2019-02-06T18:33:03.660Z,61.50
2019-02-06T18:35:31.983Z,61.60
2019-02-06T18:38:00.335Z,61.40
2019-02-06T18:40:28.854Z,61.00
2019-02-06T18:42:57.423Z,60.60
2019-02-06T18:45:27.821Z,59.80
2019-02-06T18:48:02.538Z,59.70
2019-02-06T18:50:32.712Z,59.50
2019-02-06T18:53:01.224Z,59.80
2019-02-06T18:55:29.529Z,60.90
2019-02-06T18:57:58.065Z,59.90
2019-02-06T19:00:32.131Z,60.50
2019-02-06T19:02:59.847Z,60.50
2019-02-06T19:05:36.870Z,60.90
2019-02-06T19:08:06.055Z,60.70
2019-02-06T19:10:34.361Z,60.30
2019-02-06T19:13:02.810Z,60.80
2019-02-06T19:15:31.458Z,61.20
2019-02-06T19:17:59.688Z,61.90
2019-02-06T19:20:28.029Z,62.20
2019-02-06T19:22:56.261Z,61.60
2019-02-06T19:25:24.609Z,62.10
2019-02-06T19:27:52.949Z,62.00
2019-02-06T19:30:27.436Z,62.00
2019-02-06T19:32:56.107Z,61.90
2019-02-06T19:35:24.434Z,61.90
2019-02-06T19:37:52.760Z,62.00
2019-02-06T19:40:21.092Z,62.60
2019-02-06T19:42:59.065Z,62.80
2019-02-06T19:45:19.352Z,63.60
2019-02-06T19:47:47.674Z,64.40
2019-02-06T19:50:30.214Z,65.60
2019-02-06T19:52:58.578Z,66.30
2019-02-06T19:55:26.886Z,66.40
2019-02-06T19:57:55.138Z,66.70
2019-02-06T20:00:25.993Z,67.00
2019-02-06T20:02:54.311Z,66.90
2019-02-06T20:05:23.045Z,65.90
2019-02-06T20:07:51.288Z,65.20
2019-02-06T20:10:37.718Z,65.10
2019-02-06T20:13:11.441Z,65.60
2019-02-06T20:15:36.184Z,64.90
2019-02-06T20:18:04.496Z,65.00
2019-02-06T20:20:33.112Z,65.40
2019-02-06T20:23:01.369Z,66.00
2019-02-06T20:25:29.686Z,66.60
2019-02-06T20:27:57.943Z,66.80
2019-02-06T20:30:27.958Z,67.10
2019-02-06T20:32:56.360Z,67.80
2019-02-06T20:35:25.357Z,67.70
2019-02-06T20:37:54.328Z,68.40
2019-02-06T20:40:25.892Z,68.60
2019-02-06T20:42:54.228Z,69.50
2019-02-06T20:45:22.497Z,69.30
2019-02-06T20:47:50.759Z,70.50
2019-02-06T20:50:35.401Z,70.00
2019-02-06T20:53:04.186Z,70.20
2019-02-06T20:55:32.440Z,70.30
2019-02-06T20:58:00.784Z,71.00
2019-02-06T21:00:34.672Z,72.10
2019-02-06T21:03:02.935Z,72.10
2019-02-06T21:05:31.182Z,72.70
2019-02-06T21:07:59.935Z,72.60
2019-02-06T21:10:30.774Z,73.70
2019-02-06T21:12:59.115Z,74.30
2019-02-06T21:15:27.434Z,74.60
2019-02-06T21:17:55.657Z,75.00
2019-02-06T21:20:24.751Z,76.30
2019-02-06T21:22:53.024Z,75.70
2019-02-06T21:25:23.196Z,75.40
2019-02-06T21:27:51.576Z,75.00
2019-02-06T21:30:22.743Z,74.80
2019-02-06T21:33:10.426Z,75.70
2019-02-06T21:35:39.237Z,75.80
2019-02-06T21:38:07.553Z,75.70
2019-02-06T21:40:36.938Z,76.20
2019-02-06T21:43:26.262Z,75.90
2019-02-06T21:45:54.505Z,76.10
2019-02-06T21:48:22.817Z,76.30
2019-02-06T21:50:51.053Z,76.00
2019-02-06T21:53:19.305Z,76.10
2019-02-06T21:55:47.548Z,76.60
2019-02-06T21:58:15.813Z,76.60
2019-02-06T22:00:44.145Z,76.70
2019-02-06T22:03:12.750Z,76.90
2019-02-06T22:05:41.043Z,76.60
2019-02-06T22:08:09.404Z,76.20
2019-02-06T22:10:37.646Z,76.40
2019-02-06T22:13:05.884Z,76.30
2019-02-06T22:15:34.141Z,76.60
2019-02-06T22:18:02.399Z,76.70
2019-02-06T22:20:30.660Z,76.80
2019-02-06T22:22:58.930Z,76.60
2019-02-06T22:25:27.294Z,76.70
2019-02-06T22:27:55.571Z,77.10
2019-02-06T22:30:28.908Z,77.30
2019-02-06T22:32:57.257Z,77.80
2019-02-06T22:35:25.900Z,77.30
2019-02-06T22:37:54.149Z,76.90
2019-02-06T22:40:26.970Z,76.80
2019-02-06T22:42:55.238Z,77.10
2019-02-06T22:45:28.347Z,77.00
2019-02-06T22:47:56.674Z,77.00
2019-02-06T22:50:28.765Z,77.40
2019-02-06T22:52:57.088Z,77.80
2019-02-06T22:55:25.380Z,78.10
2019-02-06T22:57:53.709Z,78.60
2019-02-06T23:00:44.564Z,79.10
2019-02-06T23:03:12.813Z,79.30
2019-02-06T23:05:41.061Z,79.60
2019-02-06T23:08:09.402Z,79.70
2019-02-06T23:10:57.099Z,80.60
2019-02-06T23:13:25.369Z,80.40
2019-02-06T23:15:53.622Z,80.40
2019-02-06T23:18:21.851Z,80.70
2019-02-06T23:20:50.116Z,80.80
2019-02-06T23:23:18.346Z,80.50
2019-02-06T23:25:46.764Z,80.30
2019-02-06T23:28:15.093Z,80.30
2019-02-06T23:30:43.349Z,80.20
2019-02-06T23:33:11.612Z,79.20
2019-02-06T23:35:41.628Z,78.70
2019-02-06T23:38:09.983Z,78.50
2019-02-06T23:40:38.217Z,78.50
2019-02-06T23:43:06.758Z,78.50
2019-02-06T23:45:34.998Z,78.20
2019-02-06T23:48:03.285Z,77.90
2019-02-06T23:50:31.544Z,77.30
2019-02-06T23:52:59.862Z,76.10
2019-02-06T23:55:28.136Z,75.30
2019-02-06T23:57:56.385Z,74.70
